createdAt,value
2022-08-25T00:00:23.436Z,100650.84
2022-08-25T00:02:56.183Z,100653.19
2022-08-25T00:05:33.349Z,100656.81
2022-08-25T00:08:04.373Z,100656.44
2022-08-25T00:10:38.147Z,100654.34
2022-08-25T00:13:08.088Z,100649.22
2022-08-25T00:15:39.091Z,100651.97
2022-08-25T00:18:19.531Z,100645.03
2022-08-25T00:20:49.307Z,100646.84
2022-08-25T00:23:18.284Z,100647.50
2022-08-25T00:25:47.609Z,100653.09
2022-08-25T00:28:16.846Z,100648.28
2022-08-25T00:30:45.852Z,100646.50
2022-08-25T00:33:14.726Z,100651.47
2022-08-25T00:35:44.011Z,100645.16
2022-08-25T00:38:12.714Z,100647.66
2022-08-25T00:40:41.631Z,100639.06
2022-08-25T00:43:09.812Z,100637.84
2022-08-25T00:45:41.045Z,100641.56
2022-08-25T00:48:09.296Z,100634.16
2022-08-25T00:50:37.470Z,100635.38
2022-08-25T00:53:07.330Z,100623.81
2022-08-25T00:55:39.393Z,100624.81
2022-08-25T00:58:17.714Z,100624.63
2022-08-25T01:00:50.099Z,100627.91
2022-08-25T01:03:20.119Z,100634.50
2022-08-25T01:05:49.239Z,100630.41
2022-08-25T01:08:21.071Z,100627.75
2022-08-25T01:10:50.796Z,100631.25
2022-08-25T01:13:22.231Z,100636.63
2022-08-25T01:15:54.801Z,100635.22
2022-08-25T01:18:24.887Z,100631.50
2022-08-25T01:20:55.064Z,100632.06
2022-08-25T01:23:24.699Z,100632.03
2022-08-25T01:25:52.843Z,100635.72
2022-08-25T01:28:21.763Z,100633.31
2022-08-25T01:30:50.671Z,100630.88
2022-08-25T01:33:19.029Z,100626.44
2022-08-25T01:35:48.148Z,100638.31
2022-08-25T01:38:17.324Z,100632.16
2022-08-25T01:40:45.675Z,100625.41
2022-08-25T01:43:13.788Z,100625.63
2022-08-25T01:45:46.292Z,100623.22
2022-08-25T01:48:15.783Z,100619.16
2022-08-25T01:50:44.295Z,100624.91
2022-08-25T01:53:27.703Z,100622.50
2022-08-25T01:56:06.181Z,100618.06
2022-08-25T01:58:41.772Z,100618.38
2022-08-25T02:01:18.778Z,100615.13
2022-08-25T02:03:49.925Z,100613.22
2022-08-25T02:06:28.760Z,100617.69
2022-08-25T02:09:02.175Z,100613.56
2022-08-25T02:11:30.680Z,100614.53
2022-08-25T02:13:59.931Z,100614.91
2022-08-25T02:16:32.233Z,100610.38
2022-08-25T02:19:01.311Z,100609.16
2022-08-25T02:21:30.235Z,100610.59
2022-08-25T02:23:59.437Z,100614.16
2022-08-25T02:26:29.804Z,100602.69
2022-08-25T02:28:58.515Z,100610.59
2022-08-25T02:31:27.391Z,100616.56
2022-08-25T02:33:57.170Z,100615.72
2022-08-25T02:36:25.501Z,100606.56
2022-08-25T02:38:53.725Z,100612.50
2022-08-25T02:41:25.172Z,100609.03
2022-08-25T02:44:01.280Z,100603.75
2022-08-25T02:46:31.102Z,100609.38
2022-08-25T02:48:59.910Z,100602.47
2022-08-25T02:51:30.104Z,100604.66
2022-08-25T02:54:03.174Z,100607.22
2022-08-25T02:56:33.008Z,100604.66
2022-08-25T02:59:02.885Z,100604.88
2022-08-25T03:01:32.803Z,100609.16
2022-08-25T03:04:03.807Z,100613.34
2022-08-25T03:06:35.050Z,100618.88
2022-08-25T03:09:03.636Z,100610.25
2022-08-25T03:11:32.602Z,100614.44
2022-08-25T03:14:00.762Z,100620.56
2022-08-25T03:16:29.049Z,100608.13
2022-08-25T03:18:58.156Z,100609.22
2022-08-25T03:21:27.647Z,100604.81
2022-08-25T03:23:56.539Z,100601.75
2022-08-25T03:26:43.123Z,100597.28
2022-08-25T03:29:13.963Z,100595.31
2022-08-25T03:31:45.360Z,100594.94
2022-08-25T03:34:18.464Z,100600.91
2022-08-25T03:36:50.965Z,100596.59
2022-08-25T03:39:20.736Z,100600.69
2022-08-25T03:41:49.576Z,100592.72
2022-08-25T03:44:19.115Z,100595.44
2022-08-25T03:46:51.427Z,100589.00
2022-08-25T03:49:23.843Z,100590.38
2022-08-25T03:51:54.819Z,100597.53
2022-08-25T03:54:25.640Z,100597.72
2022-08-25T03:56:54.136Z,100597.28
2022-08-25T03:59:22.418Z,100592.72
2022-08-25T04:01:55.211Z,100586.47
2022-08-25T04:04:24.308Z,100578.63
2022-08-25T04:06:53.092Z,100573.44
2022-08-25T04:09:21.748Z,100586.25
2022-08-25T04:11:53.296Z,100583.59
2022-08-25T04:14:23.528Z,100580.75
2022-08-25T04:16:54.843Z,100580.19
2022-08-25T04:19:23.161Z,100576.47
2022-08-25T04:21:51.774Z,100577.66
2022-08-25T04:24:25.126Z,100582.53
2022-08-25T04:26:53.759Z,100587.19
2022-08-25T04:29:25.333Z,100584.66
2022-08-25T04:31:54.968Z,100591.81
2022-08-25T04:34:30.130Z,100585.31
2022-08-25T04:37:03.381Z,100582.25
2022-08-25T04:39:31.788Z,100582.78
2022-08-25T04:42:01.202Z,100581.78
2022-08-25T04:44:30.836Z,100582.03
2022-08-25T04:47:02.121Z,100584.44
2022-08-25T04:49:30.373Z,100581.28
2022-08-25T04:51:58.700Z,100585.22
2022-08-25T04:54:28.171Z,100588.56
2022-08-25T04:56:58.749Z,100587.16
2022-08-25T04:59:30.241Z,100591.72
2022-08-25T05:02:03.098Z,100591.13
2022-08-25T05:04:33.468Z,100590.00
2022-08-25T05:07:02.566Z,100593.78
2022-08-25T05:09:32.918Z,100590.19
2022-08-25T05:12:03.118Z,100584.69
2022-08-25T05:14:32.991Z,100577.94
2022-08-25T05:17:02.110Z,100578.53
2022-08-25T05:19:30.380Z,100583.78
2022-08-25T05:21:58.548Z,100585.44
2022-08-25T05:24:28.132Z,100576.50
2022-08-25T05:26:56.986Z,100583.78
2022-08-25T05:29:25.468Z,100582.44
2022-08-25T05:31:54.068Z,100578.19
2022-08-25T05:34:22.328Z,100573.41
2022-08-25T05:36:51.452Z,100566.53
2022-08-25T05:39:19.768Z,100570.50
2022-08-25T05:41:48.030Z,100576.69
2022-08-25T05:44:20.844Z,100581.66
2022-08-25T05:46:49.665Z,100576.78
2022-08-25T05:49:17.998Z,100580.06
2022-08-25T05:51:46.215Z,100583.59
2022-08-25T05:54:14.439Z,100575.19
2022-08-25T05:56:42.608Z,100570.06
2022-08-25T05:59:11.707Z,100570.91
2022-08-25T06:01:58.612Z,100575.81
2022-08-25T06:04:27.203Z,100581.75
2022-08-25T06:06:58.447Z,100576.47
2022-08-25T06:09:29.460Z,100569.72
2022-08-25T06:11:57.798Z,100566.22
2022-08-25T06:14:26.034Z,100562.28
2022-08-25T06:16:54.308Z,100559.38
2022-08-25T06:19:23.642Z,100562.25
2022-08-25T06:21:57.966Z,100560.72
2022-08-25T06:24:27.854Z,100556.78
2022-08-25T06:26:57.001Z,100553.63
2022-08-25T06:29:26.240Z,100547.25
2022-08-25T06:31:54.442Z,100553.75
2022-08-25T06:34:24.306Z,100551.97
2022-08-25T06:36:55.624Z,100551.13
2022-08-25T06:39:24.419Z,100544.22
2022-08-25T06:41:56.738Z,100543.19
2022-08-25T06:44:30.482Z,100537.56
2022-08-25T06:46:58.749Z,100541.56
2022-08-25T06:49:35.528Z,100552.75
2022-08-25T06:52:04.981Z,100546.16
2022-08-25T06:54:33.184Z,100545.22
2022-08-25T06:57:01.488Z,100549.38
2022-08-25T06:59:32.191Z,100543.72
2022-08-25T07:02:03.261Z,100545.16
2022-08-25T07:04:33.136Z,100539.47
2022-08-25T07:07:01.962Z,100542.22
2022-08-25T07:09:30.231Z,100541.44
2022-08-25T07:11:58.826Z,100534.91
2022-08-25T07:14:29.324Z,100534.06
2022-08-25T07:16:58.056Z,100526.66
2022-08-25T07:19:27.494Z,100539.47
2022-08-25T07:21:55.636Z,100526.81
2022-08-25T07:24:24.612Z,100529.16
2022-08-25T07:26:53.194Z,100529.75
2022-08-25T07:29:31.832Z,100520.84
2022-08-25T07:32:02.820Z,100518.25
2022-08-25T07:34:52.535Z,100514.34
2022-08-25T07:37:48.802Z,100512.38
2022-08-25T07:40:17.603Z,100518.69
2022-08-25T07:42:46.671Z,100518.22
2022-08-25T07:45:20.491Z,100520.66
2022-08-25T07:47:51.663Z,100511.47
2022-08-25T07:50:21.320Z,100520.00
2022-08-25T07:52:55.139Z,100519.94
2022-08-25T07:55:25.441Z,100520.00
2022-08-25T07:57:57.131Z,100520.63
2022-08-25T08:00:30.911Z,100514.66
2022-08-25T08:03:00.558Z,100529.25
2022-08-25T08:05:32.509Z,100526.00
2022-08-25T08:08:01.137Z,100522.16
2022-08-25T08:10:54.195Z,100525.78
2022-08-25T08:13:20.039Z,100520.97
2022-08-25T08:15:55.628Z,100524.00
2022-08-25T08:18:24.507Z,100522.75
2022-08-25T08:20:53.189Z,100525.53
2022-08-25T08:23:27.824Z,100523.34
2022-08-25T08:25:56.527Z,100515.91
2022-08-25T08:28:27.877Z,100520.41
2022-08-25T08:30:56.231Z,100515.41
2022-08-25T08:33:25.339Z,100514.72
2022-08-25T08:36:08.399Z,100518.06
2022-08-25T08:38:40.461Z,100520.81
2022-08-25T08:42:11.933Z,100526.28
2022-08-25T08:44:46.660Z,100516.28
2022-08-25T08:47:33.711Z,100516.53
2022-08-25T08:50:37.836Z,100522.44
2022-08-25T08:53:11.036Z,100513.59
2022-08-25T08:55:52.957Z,100515.19
2022-08-25T08:58:35.393Z,100512.44
2022-08-25T09:01:05.006Z,100504.56
2022-08-25T09:03:44.347Z,100505.31
2022-08-25T09:06:22.500Z,100494.38
2022-08-25T09:08:52.665Z,100494.06
2022-08-25T09:11:51.471Z,100495.53
2022-08-25T09:15:14.104Z,100485.16
2022-08-25T09:17:54.649Z,100483.44
2022-08-25T09:20:48.578Z,100479.56
2022-08-25T09:23:34.915Z,100479.84
2022-08-25T09:26:27.699Z,100477.63
2022-08-25T09:29:28.674Z,100475.53
2022-08-25T09:32:00.382Z,100477.41
2022-08-25T09:34:33.582Z,100477.41
2022-08-25T09:37:03.017Z,100479.34
2022-08-25T09:39:31.227Z,100485.88
2022-08-25T09:42:03.637Z,100489.91
2022-08-25T09:44:38.995Z,100476.34
2022-08-25T09:47:24.568Z,100492.38
2022-08-25T09:50:04.534Z,100478.34
2022-08-25T09:52:38.580Z,100479.38
2022-08-25T09:55:13.646Z,100470.13
2022-08-25T09:57:52.878Z,100464.50
2022-08-25T10:00:34.351Z,100466.38
2022-08-25T10:03:22.677Z,100458.97
2022-08-25T10:05:58.979Z,100456.50
2022-08-25T10:08:39.405Z,100457.34
2022-08-25T10:11:15.139Z,100454.94
2022-08-25T10:13:47.013Z,100448.69
2022-08-25T10:16:30.821Z,100448.28
2022-08-25T10:19:26.498Z,100454.91
2022-08-25T10:22:08.324Z,100453.59
2022-08-25T10:24:44.155Z,100452.22
2022-08-25T10:27:35.946Z,100446.88
2022-08-25T10:30:40.514Z,100448.88
2022-08-25T10:33:08.871Z,100449.88
2022-08-25T10:35:55.481Z,100443.19
2022-08-25T10:38:36.020Z,100444.56
2022-08-25T10:41:41.807Z,100435.69
2022-08-25T10:44:53.068Z,100431.84
2022-08-25T10:47:37.341Z,100438.84
2022-08-25T10:50:29.484Z,100426.84
2022-08-25T10:53:28.083Z,100428.88
2022-08-25T10:56:07.093Z,100424.94
2022-08-25T10:58:59.822Z,100426.50
2022-08-25T11:01:45.256Z,100433.81
2022-08-25T11:04:29.813Z,100433.09
2022-08-25T11:07:09.293Z,100424.94
2022-08-25T11:09:41.761Z,100419.53
2022-08-25T11:12:16.338Z,100412.41
2022-08-25T11:14:57.158Z,100415.13
2022-08-25T11:17:27.394Z,100409.66
2022-08-25T11:20:07.532Z,100406.75
2022-08-25T11:22:53.646Z,100411.19
2022-08-25T11:25:35.031Z,100402.84
2022-08-25T11:28:22.349Z,100393.75
2022-08-25T11:30:52.908Z,100395.16
2022-08-25T11:33:24.326Z,100387.72
2022-08-25T11:36:13.772Z,100389.44
2022-08-25T11:39:28.944Z,100379.94
2022-08-25T11:42:26.119Z,100379.94
2022-08-25T11:45:16.254Z,100376.06
2022-08-25T11:47:53.992Z,100372.91
2022-08-25T11:50:54.301Z,100379.34
2022-08-25T11:53:30.308Z,100378.78
2022-08-25T11:56:04.286Z,100368.50
2022-08-25T11:58:50.013Z,100366.63
2022-08-25T12:01:40.352Z,100367.09
2022-08-25T12:04:42.263Z,100365.28
2022-08-25T12:07:20.007Z,100362.28
2022-08-25T12:09:53.885Z,100367.25
2022-08-25T12:12:35.973Z,100360.94
2022-08-25T12:15:26.135Z,100362.19
2022-08-25T12:18:18.762Z,100360.75
2022-08-25T12:20:58.690Z,100360.66
2022-08-25T12:23:56.637Z,100363.69
2022-08-25T12:26:46.206Z,100357.03
2022-08-25T12:29:33.734Z,100358.16
2022-08-25T12:32:46.993Z,100359.78
2022-08-25T12:35:42.912Z,100362.00
2022-08-25T12:38:15.742Z,100362.97
2022-08-25T12:40:45.444Z,100351.31
2022-08-25T12:43:14.228Z,100346.56
2022-08-25T12:45:51.806Z,100342.41
2022-08-25T12:48:27.292Z,100350.09
2022-08-25T12:51:19.582Z,100341.03
2022-08-25T12:53:57.305Z,100350.50
2022-08-25T12:56:37.555Z,100344.97
2022-08-25T12:59:23.880Z,100343.31
2022-08-25T13:02:03.047Z,100339.13
2022-08-25T13:05:20.890Z,100341.81
2022-08-25T13:08:02.345Z,100337.81
2022-08-25T13:10:48.302Z,100341.06
2022-08-25T13:13:37.719Z,100322.72
2022-08-25T13:16:18.533Z,100335.41
2022-08-25T13:18:51.436Z,100334.97
2022-08-25T13:21:24.433Z,100326.44
2022-08-25T13:24:01.369Z,100321.50
2022-08-25T13:26:48.450Z,100326.09
2022-08-25T13:29:23.034Z,100330.88
2022-08-25T13:32:09.198Z,100321.94
2022-08-25T13:34:42.725Z,100316.22
2022-08-25T13:37:29.782Z,100321.28
2022-08-25T13:40:10.233Z,100314.53
2022-08-25T13:42:42.541Z,100310.44
2022-08-25T13:45:22.052Z,100313.28
2022-08-25T13:48:20.795Z,100309.00
2022-08-25T13:50:43.543Z,100309.50
2022-08-25T13:53:25.901Z,100303.66
2022-08-25T13:56:02.182Z,100306.13
2022-08-25T13:58:45.242Z,100297.31
2022-08-25T14:01:48.266Z,100300.41
2022-08-25T14:04:26.512Z,100300.44
2022-08-25T14:07:20.290Z,100296.00
2022-08-25T14:09:56.423Z,100285.75
2022-08-25T14:12:37.751Z,100290.56
2022-08-25T14:15:12.110Z,100301.84
2022-08-25T14:17:43.842Z,100299.72
2022-08-25T14:20:33.421Z,100303.78
2022-08-25T14:23:05.592Z,100292.72
2022-08-25T14:25:40.565Z,100294.78
2022-08-25T14:28:14.583Z,100288.75
2022-08-25T14:30:47.182Z,100293.94
2022-08-25T14:33:17.818Z,100282.00
2022-08-25T14:35:51.547Z,100283.88
2022-08-25T14:38:22.374Z,100283.31
2022-08-25T14:40:51.566Z,100276.97
2022-08-25T14:43:20.873Z,100276.19
2022-08-25T14:45:52.704Z,100275.91
2022-08-25T14:48:28.964Z,100271.91
2022-08-25T14:50:59.726Z,100268.78
2022-08-25T14:53:28.819Z,100276.41
2022-08-25T14:55:59.062Z,100276.50
2022-08-25T14:58:33.968Z,100275.31
2022-08-25T15:01:03.426Z,100283.66
2022-08-25T15:03:43.180Z,100275.06
2022-08-25T15:06:17.328Z,100272.91
2022-08-25T15:09:04.070Z,100270.97
2022-08-25T15:11:33.168Z,100266.19
2022-08-25T15:14:03.651Z,100261.91
2022-08-25T15:16:39.445Z,100265.97
2022-08-25T15:19:10.545Z,100255.94
2022-08-25T15:21:39.522Z,100262.97
2022-08-25T15:24:10.206Z,100251.63
2022-08-25T15:27:00.234Z,100250.00
2022-08-25T15:29:31.395Z,100252.47
2022-08-25T15:32:01.703Z,100256.53
2022-08-25T15:34:33.360Z,100250.00
2022-08-25T15:37:09.998Z,100246.81
2022-08-25T15:39:41.132Z,100260.34
2022-08-25T15:42:12.182Z,100254.94
2022-08-25T15:44:42.384Z,100249.28
2022-08-25T15:47:23.080Z,100244.97
2022-08-25T15:50:01.559Z,100246.03
2022-08-25T15:52:39.408Z,100237.09
2022-08-25T15:55:15.098Z,100233.88
2022-08-25T15:57:46.124Z,100238.47
2022-08-25T16:00:16.759Z,100232.78
2022-08-25T16:02:46.494Z,100228.50
2022-08-25T16:05:16.510Z,100231.72
2022-08-25T16:07:51.551Z,100224.69
2022-08-25T16:10:20.635Z,100219.84
2022-08-25T16:12:51.953Z,100219.03
2022-08-25T16:15:23.882Z,100225.81
2022-08-25T16:17:58.584Z,100219.84
2022-08-25T16:20:30.430Z,100220.94
2022-08-25T16:23:02.644Z,100213.91
2022-08-25T16:25:32.385Z,100210.91
2022-08-25T16:28:00.689Z,100201.72
2022-08-25T16:30:28.865Z,100211.16
2022-08-25T16:32:57.083Z,100200.34
2022-08-25T16:35:25.262Z,100203.56
2022-08-25T16:37:53.603Z,100206.03
2022-08-25T16:40:24.827Z,100202.25
2022-08-25T16:42:55.078Z,100200.63
2022-08-25T16:45:24.480Z,100196.03
2022-08-25T16:47:55.747Z,100191.69
2022-08-25T16:50:24.212Z,100188.72
2022-08-25T16:53:11.039Z,100188.72
2022-08-25T16:55:39.876Z,100184.13
2022-08-25T16:58:13.336Z,100183.28
2022-08-25T17:00:44.791Z,100182.72
2022-08-25T17:03:16.168Z,100173.00
2022-08-25T17:05:45.315Z,100164.63
2022-08-25T17:08:29.026Z,100171.84
2022-08-25T17:11:06.244Z,100164.28
2022-08-25T17:13:37.483Z,100167.47
2022-08-25T17:16:06.444Z,100170.16
2022-08-25T17:18:35.086Z,100166.13
2022-08-25T17:21:24.347Z,100182.00
2022-08-25T17:23:57.860Z,100178.50
2022-08-25T17:26:29.033Z,100177.91
2022-08-25T17:28:59.280Z,100179.53
2022-08-25T17:31:28.764Z,100170.88
2022-08-25T17:33:59.433Z,100177.50
2022-08-25T17:36:27.880Z,100169.91
2022-08-25T17:38:57.138Z,100176.59
2022-08-25T17:41:25.987Z,100175.97
2022-08-25T17:43:54.199Z,100189.63
2022-08-25T17:46:22.682Z,100183.56
2022-08-25T17:48:51.579Z,100186.91
2022-08-25T17:51:20.443Z,100178.75
2022-08-25T17:53:50.478Z,100187.53
2022-08-25T17:56:27.219Z,100192.28
2022-08-25T17:58:57.070Z,100194.03
2022-08-25T18:01:29.365Z,100196.00
2022-08-25T18:03:59.245Z,100192.88
2022-08-25T18:06:29.618Z,100197.91
2022-08-25T18:09:01.417Z,100205.31
2022-08-25T18:11:30.094Z,100207.94
2022-08-25T18:13:59.238Z,100211.88
2022-08-25T18:16:28.446Z,100204.28
2022-08-25T18:18:57.196Z,100205.59
2022-08-25T18:21:25.577Z,100206.75
2022-08-25T18:23:59.144Z,100200.66
2022-08-25T18:26:28.076Z,100207.25
2022-08-25T18:28:56.312Z,100209.78
2022-08-25T18:31:25.279Z,100212.81
2022-08-25T18:33:53.616Z,100223.59
2022-08-25T18:36:25.091Z,100216.19
2022-08-25T18:39:13.651Z,100220.06
2022-08-25T18:41:42.813Z,100223.88
2022-08-25T18:44:15.569Z,100226.69
2022-08-25T18:46:45.418Z,100219.94
2022-08-25T18:49:17.569Z,100230.09
2022-08-25T18:51:48.183Z,100243.97
2022-08-25T18:54:22.784Z,100245.75
2022-08-25T18:56:53.939Z,100242.72
2022-08-25T18:59:23.620Z,100245.56
2022-08-25T19:01:54.380Z,100249.19
2022-08-25T19:04:31.522Z,100247.41
2022-08-25T19:07:01.874Z,100250.44
2022-08-25T19:09:32.452Z,100255.59
2022-08-25T19:12:01.174Z,100260.06
2022-08-25T19:14:29.633Z,100267.97
2022-08-25T19:16:58.702Z,100264.84
2022-08-25T19:19:31.345Z,100265.19
2022-08-25T19:22:02.976Z,100269.84
2022-08-25T19:24:32.227Z,100269.16
2022-08-25T19:27:02.456Z,100269.78
2022-08-25T19:29:31.548Z,100277.03
2022-08-25T19:32:01.789Z,100276.66
2022-08-25T19:34:35.270Z,100270.75
2022-08-25T19:37:05.554Z,100279.47
2022-08-25T19:39:35.663Z,100279.09
2022-08-25T19:42:08.463Z,100276.31
2022-08-25T19:44:56.690Z,100277.59
2022-08-25T19:47:25.989Z,100279.91
2022-08-25T19:49:55.259Z,100276.88
2022-08-25T19:52:24.964Z,100284.91
2022-08-25T19:54:55.029Z,100279.19
2022-08-25T19:57:28.479Z,100279.41
2022-08-25T20:00:24.875Z,100289.56
2022-08-25T20:02:53.121Z,100290.00
2022-08-25T20:05:24.191Z,100296.38
2022-08-25T20:07:54.013Z,100298.50
2022-08-25T20:10:24.318Z,100298.50
2022-08-25T20:12:55.577Z,100296.38
2022-08-25T20:15:24.277Z,100300.34
2022-08-25T20:17:56.464Z,100300.00
2022-08-25T20:20:25.683Z,100292.19
2022-08-25T20:23:19.450Z,100299.75
2022-08-25T20:25:47.854Z,100301.16
2022-08-25T20:28:18.867Z,100301.41
2022-08-25T20:30:47.682Z,100301.03
2022-08-25T20:33:22.600Z,100302.88
2022-08-25T20:35:52.938Z,100302.50
2022-08-25T20:38:21.379Z,100304.16
2022-08-25T20:40:49.600Z,100301.94
2022-08-25T20:43:17.912Z,100302.97
2022-08-25T20:45:49.179Z,100304.03
2022-08-25T20:48:18.033Z,100306.94
2022-08-25T20:50:46.444Z,100312.75
2022-08-25T20:53:27.049Z,100319.56
2022-08-25T20:55:55.322Z,100317.59
2022-08-25T20:58:23.628Z,100324.19
2022-08-25T21:00:54.593Z,100324.38
2022-08-25T21:03:22.803Z,100323.56
2022-08-25T21:05:54.038Z,100331.22
2022-08-25T21:08:23.610Z,100333.75
2022-08-25T21:10:52.001Z,100327.00
2022-08-25T21:13:20.210Z,100324.78
2022-08-25T21:15:51.001Z,100329.78
2022-08-25T21:18:19.200Z,100330.56
2022-08-25T21:20:47.410Z,100326.34
2022-08-25T21:23:15.575Z,100325.19
2022-08-25T21:25:43.870Z,100325.19
2022-08-25T21:28:13.233Z,100321.25
2022-08-25T21:30:44.715Z,100330.28
2022-08-25T21:33:15.534Z,100321.69
2022-08-25T21:35:44.218Z,100320.72
2022-08-25T21:38:15.190Z,100325.53
2022-08-25T21:40:45.016Z,100328.34
2022-08-25T21:43:13.485Z,100335.06
2022-08-25T21:45:46.589Z,100338.16
2022-08-25T21:48:15.344Z,100338.31
2022-08-25T21:50:43.651Z,100340.59
2022-08-25T21:53:12.073Z,100336.97
2022-08-25T21:55:42.007Z,100344.66
2022-08-25T21:58:10.337Z,100340.00
2022-08-25T22:00:38.604Z,100340.81
2022-08-25T22:03:10.937Z,100340.16
2022-08-25T22:05:43.278Z,100339.94
2022-08-25T22:08:14.050Z,100331.69
2022-08-25T22:10:45.572Z,100336.00
2022-08-25T22:13:13.791Z,100344.41
2022-08-25T22:15:41.980Z,100341.75
2022-08-25T22:18:10.161Z,100346.03
2022-08-25T22:20:39.245Z,100354.88
2022-08-25T22:23:09.711Z,100356.28
2022-08-25T22:25:48.528Z,100357.69
2022-08-25T22:28:17.015Z,100352.41
2022-08-25T22:30:45.254Z,100351.44
2022-08-25T22:33:13.664Z,100350.00
2022-08-25T22:35:41.941Z,100348.97
2022-08-25T22:38:12.407Z,100343.47
2022-08-25T22:40:41.715Z,100349.28
2022-08-25T22:43:10.892Z,100345.53
2022-08-25T22:45:39.593Z,100354.16
2022-08-25T22:48:08.287Z,100352.28
2022-08-25T22:50:37.547Z,100343.41
2022-08-25T22:53:05.874Z,100347.94
2022-08-25T22:55:34.237Z,100351.59
2022-08-25T22:58:02.389Z,100351.59
2022-08-25T23:00:31.635Z,100337.44
2022-08-25T23:02:59.916Z,100338.38
2022-08-25T23:05:29.387Z,100336.28
2022-08-25T23:07:57.686Z,100334.81
2022-08-25T23:10:26.409Z,100330.38
2022-08-25T23:12:55.165Z,100329.53
2022-08-25T23:15:23.515Z,100330.06
2022-08-25T23:17:52.003Z,100332.16
2022-08-25T23:20:44.809Z,100330.75
2022-08-25T23:23:14.084Z,100329.50
2022-08-25T23:25:42.353Z,100329.25
2022-08-25T23:28:10.866Z,100326.59
2022-08-25T23:30:40.244Z,100330.28
2022-08-25T23:33:15.447Z,100321.16
2022-08-25T23:35:47.455Z,100332.78
2022-08-25T23:38:15.787Z,100328.75
2022-08-25T23:40:44.681Z,100326.94
2022-08-25T23:43:13.474Z,100329.00
2022-08-25T23:45:41.786Z,100322.84
2022-08-25T23:48:10.553Z,100318.31
2022-08-25T23:50:49.088Z,100312.59
2022-08-25T23:53:22.516Z,100309.63
2022-08-25T23:55:54.769Z,100312.66
2022-08-25T23:58:24.155Z,100302.63
